sensor_id;sensor_type;location;lat;lon;timestamp;P1;durP1;ratioP1;P2;durP2;ratioP2
26696;SDS011;14312;52.614;13.496;2023-04-01T00:01:02;1.75;;;1.48;;
26696;SDS011;14312;52.614;13.496;2023-04-01T00:03:49;1.55;;;1.33;;
26696;SDS011;14312;52.614;13.496;2023-04-01T00:06:35;1.60;;;1.50;;
26696;SDS011;14312;52.614;13.496;2023-04-01T00:09:21;2.20;;;1.45;;
26696;SDS011;14312;52.614;13.496;2023-04-01T00:12:07;2.60;;;1.63;;
26696;SDS011;14312;52.614;13.496;2023-04-01T00:14:53;1.63;;;1.52;;
26696;SDS011;14312;52.614;13.496;2023-04-01T00:17:39;1.70;;;1.60;;
26696;SDS011;14312;52.614;13.496;2023-04-01T00:20:25;2.28;;;1.80;;
26696;SDS011;14312;52.614;13.496;2023-04-01T00:23:11;2.53;;;1.70;;
26696;SDS011;14312;52.614;13.496;2023-04-01T00:25:59;2.03;;;1.83;;
26696;SDS011;14312;52.614;13.496;2023-04-01T00:28:46;2.50;;;1.60;;
26696;SDS011;14312;52.614;13.496;2023-04-01T00:31:32;2.53;;;1.77;;
26696;SDS011;14312;52.614;13.496;2023-04-01T00:34:18;1.70;;;1.60;;
26696;SDS011;14312;52.614;13.496;2023-04-01T00:37:06;1.85;;;1.63;;
26696;SDS011;14312;52.614;13.496;2023-04-01T00:39:53;1.77;;;1.48;;
26696;SDS011;14312;52.614;13.496;2023-04-01T00:42:40;1.70;;;1.60;;
26696;SDS011;14312;52.614;13.496;2023-04-01T00:45:34;1.90;;;1.58;;
26696;SDS011;14312;52.614;13.496;2023-04-01T00:48:26;1.88;;;1.70;;
26696;SDS011;14312;52.614;13.496;2023-04-01T00:51:25;1.65;;;1.55;;
26696;SDS011;14312;52.614;13.496;2023-04-01T00:54:15;1.63;;;1.52;;
26696;SDS011;14312;52.614;13.496;2023-04-01T00:57:08;2.05;;;1.75;;
26696;SDS011;14312;52.614;13.496;2023-04-01T00:59:58;2.67;;;1.80;;
26696;SDS011;14312;52.614;13.496;2023-04-01T01:02:45;2.03;;;1.83;;
26696;SDS011;14312;52.614;13.496;2023-04-01T01:05:42;2.25;;;1.60;;
26696;SDS011;14312;52.614;13.496;2023-04-01T01:11:37;1.70;;;1.60;;
26696;SDS011;14312;52.614;13.496;2023-04-01T01:23:48;1.90;;;1.80;;
26696;SDS011;14312;52.614;13.496;2023-04-01T01:27:06;2.10;;;2.00;;
26696;SDS011;14312;52.614;13.496;2023-04-01T01:36:12;2.28;;;2.08;;
26696;SDS011;14312;52.614;13.496;2023-04-01T01:39:02;2.50;;;2.05;;
26696;SDS011;14312;52.614;13.496;2023-04-01T01:41:50;2.00;;;1.90;;
26696;SDS011;14312;52.614;13.496;2023-04-01T01:44:36;2.25;;;2.05;;
26696;SDS011;14312;52.614;13.496;2023-04-01T01:47:25;2.33;;;2.13;;
26696;SDS011;14312;52.614;13.496;2023-04-01T01:50:13;1.92;;;1.80;;
26696;SDS011;14312;52.614;13.496;2023-04-01T01:53:04;2.35;;;2.15;;
26696;SDS011;14312;52.614;13.496;2023-04-01T01:55:52;1.98;;;1.80;;
26696;SDS011;14312;52.614;13.496;2023-04-01T01:58:42;1.90;;;1.80;;
26696;SDS011;14312;52.614;13.496;2023-04-01T02:01:35;1.90;;;1.80;;
26696;SDS011;14312;52.614;13.496;2023-04-01T02:04:27;1.92;;;1.70;;
26696;SDS011;14312;52.614;13.496;2023-04-01T02:07:18;1.85;;;1.70;;
26696;SDS011;14312;52.614;13.496;2023-04-01T02:10:09;1.90;;;1.80;;
26696;SDS011;14312;52.614;13.496;2023-04-01T02:12:56;1.63;;;1.52;;
26696;SDS011;14312;52.614;13.496;2023-04-01T02:15:46;2.20;;;2.00;;
26696;SDS011;14312;52.614;13.496;2023-04-01T02:18:36;2.13;;;1.92;;
26696;SDS011;14312;52.614;13.496;2023-04-01T02:21:24;1.63;;;1.52;;
26696;SDS011;14312;52.614;13.496;2023-04-01T02:24:14;2.00;;;1.80;;
26696;SDS011;14312;52.614;13.496;2023-04-01T02:27:01;2.17;;;1.98;;
26696;SDS011;14312;52.614;13.496;2023-04-01T02:29:47;2.17;;;1.80;;
26696;SDS011;14312;52.614;13.496;2023-04-01T02:32:33;2.33;;;1.83;;
26696;SDS011;14312;52.614;13.496;2023-04-01T02:35:23;2.38;;;2.17;;
26696;SDS011;14312;52.614;13.496;2023-04-01T02:38:11;2.60;;;2.00;;
26696;SDS011;14312;52.614;13.496;2023-04-01T02:40:58;1.85;;;1.73;;
26696;SDS011;14312;52.614;13.496;2023-04-01T02:43:46;2.00;;;1.75;;
26696;SDS011;14312;52.614;13.496;2023-04-01T02:46:32;2.47;;;1.80;;
26696;SDS011;14312;52.614;13.496;2023-04-01T02:49:18;2.03;;;1.90;;
26696;SDS011;14312;52.614;13.496;2023-04-01T02:52:04;2.33;;;1.90;;
26696;SDS011;14312;52.614;13.496;2023-04-01T02:54:50;1.73;;;1.63;;
26696;SDS011;14312;52.614;13.496;2023-04-01T02:57:36;2.88;;;1.98;;
26696;SDS011;14312;52.614;13.496;2023-04-01T03:00:22;1.80;;;1.70;;
26696;SDS011;14312;52.614;13.496;2023-04-01T03:03:08;1.80;;;1.70;;
26696;SDS011;14312;52.614;13.496;2023-04-01T03:05:55;1.88;;;1.75;;
26696;SDS011;14312;52.614;13.496;2023-04-01T03:08:41;2.20;;;2.00;;
26696;SDS011;14312;52.614;13.496;2023-04-01T03:11:27;1.92;;;1.73;;
26696;SDS011;14312;52.614;13.496;2023-04-01T03:14:13;1.50;;;1.40;;
26696;SDS011;14312;52.614;13.496;2023-04-01T03:16:59;2.33;;;1.80;;
26696;SDS011;14312;52.614;13.496;2023-04-01T03:19:46;1.83;;;1.70;;
26696;SDS011;14312;52.614;13.496;2023-04-01T03:22:32;1.90;;;1.70;;
26696;SDS011;14312;52.614;13.496;2023-04-01T03:25:18;2.63;;;1.92;;
26696;SDS011;14312;52.614;13.496;2023-04-01T03:28:04;2.15;;;1.95;;
26696;SDS011;14312;52.614;13.496;2023-04-01T03:30:50;1.80;;;1.70;;
26696;SDS011;14312;52.614;13.496;2023-04-01T03:33:36;3.03;;;1.80;;
26696;SDS011;14312;52.614;13.496;2023-04-01T03:36:22;2.28;;;2.08;;
26696;SDS011;14312;52.614;13.496;2023-04-01T03:39:08;1.70;;;1.60;;
26696;SDS011;14312;52.614;13.496;2023-04-01T03:41:54;2.00;;;1.73;;
26696;SDS011;14312;52.614;13.496;2023-04-01T03:44:40;2.00;;;1.80;;
26696;SDS011;14312;52.614;13.496;2023-04-01T03:47:26;2.25;;;1.98;;
26696;SDS011;14312;52.614;13.496;2023-04-01T03:50:12;2.60;;;1.90;;
26696;SDS011;14312;52.614;13.496;2023-04-01T03:52:58;3.22;;;2.17;;
26696;SDS011;14312;52.614;13.496;2023-04-01T03:55:44;2.25;;;1.90;;
26696;SDS011;14312;52.614;13.496;2023-04-01T03:58:30;2.20;;;2.00;;
26696;SDS011;14312;52.614;13.496;2023-04-01T04:01:17;3.13;;;1.85;;
26696;SDS011;14312;52.614;13.496;2023-04-01T04:04:06;2.10;;;1.90;;
26696;SDS011;14312;52.614;13.496;2023-04-01T04:06:52;1.80;;;1.70;;
26696;SDS011;14312;52.614;13.496;2023-04-01T04:09:38;2.15;;;1.95;;
26696;SDS011;14312;52.614;13.496;2023-04-01T04:12:24;1.65;;;1.55;;
26696;SDS011;14312;52.614;13.496;2023-04-01T04:15:10;2.08;;;1.70;;
26696;SDS011;14312;52.614;13.496;2023-04-01T04:17:57;3.28;;;2.10;;
26696;SDS011;14312;52.614;13.496;2023-04-01T04:20:43;2.35;;;1.88;;
26696;SDS011;14312;52.614;13.496;2023-04-01T04:23:32;2.42;;;1.90;;
26696;SDS011;14312;52.614;13.496;2023-04-01T04:26:19;2.47;;;2.10;;
26696;SDS011;14312;52.614;13.496;2023-04-01T04:29:05;2.50;;;1.85;;
26696;SDS011;14312;52.614;13.496;2023-04-01T04:31:51;2.67;;;1.88;;
26696;SDS011;14312;52.614;13.496;2023-04-01T04:34:37;2.22;;;1.92;;
26696;SDS011;14312;52.614;13.496;2023-04-01T04:37:23;2.33;;;1.95;;
26696;SDS011;14312;52.614;13.496;2023-04-01T04:40:11;2.17;;;1.98;;
26696;SDS011;14312;52.614;13.496;2023-04-01T04:42:57;2.00;;;1.80;;
26696;SDS011;14312;52.614;13.496;2023-04-01T04:45:43;2.15;;;1.95;;
26696;SDS011;14312;52.614;13.496;2023-04-01T04:48:29;2.28;;;1.75;;
26696;SDS011;14312;52.614;13.496;2023-04-01T04:51:16;2.28;;;2.08;;
26696;SDS011;14312;52.614;13.496;2023-04-01T04:54:03;2.28;;;2.08;;
26696;SDS011;14312;52.614;13.496;2023-04-01T04:56:53;2.53;;;2.20;;
26696;SDS011;14312;52.614;13.496;2023-04-01T04:59:39;1.92;;;1.70;;
26696;SDS011;14312;52.614;13.496;2023-04-01T05:02:25;2.22;;;1.90;;
26696;SDS011;14312;52.614;13.496;2023-04-01T05:05:11;2.22;;;2.00;;
26696;SDS011;14312;52.614;13.496;2023-04-01T05:07:57;2.17;;;1.85;;
26696;SDS011;14312;52.614;13.496;2023-04-01T05:10:43;2.38;;;2.17;;
26696;SDS011;14312;52.614;13.496;2023-04-01T05:13:30;2.47;;;2.22;;
26696;SDS011;14312;52.614;13.496;2023-04-01T05:16:17;2.72;;;2.40;;
26696;SDS011;14312;52.614;13.496;2023-04-01T05:19:04;2.60;;;2.40;;
26696;SDS011;14312;52.614;13.496;2023-04-01T05:21:50;2.40;;;2.20;;
26696;SDS011;14312;52.614;13.496;2023-04-01T05:24:36;3.22;;;2.40;;
26696;SDS011;14312;52.614;13.496;2023-04-01T05:27:22;2.30;;;2.10;;
26696;SDS011;14312;52.614;13.496;2023-04-01T05:30:08;2.25;;;2.10;;
26696;SDS011;14312;52.614;13.496;2023-04-01T05:32:55;2.80;;;2.40;;
26696;SDS011;14312;52.614;13.496;2023-04-01T05:35:41;2.55;;;2.35;;
26696;SDS011;14312;52.614;13.496;2023-04-01T05:38:27;2.80;;;2.50;;
26696;SDS011;14312;52.614;13.496;2023-04-01T05:41:13;2.80;;;2.60;;
26696;SDS011;14312;52.614;13.496;2023-04-01T05:44:00;2.65;;;2.45;;
26696;SDS011;14312;52.614;13.496;2023-04-01T05:46:46;2.42;;;2.22;;
26696;SDS011;14312;52.614;13.496;2023-04-01T05:49:33;2.80;;;2.45;;
26696;SDS011;14312;52.614;13.496;2023-04-01T05:52:19;2.63;;;2.42;;
26696;SDS011;14312;52.614;13.496;2023-04-01T05:55:05;3.10;;;2.60;;
26696;SDS011;14312;52.614;13.496;2023-04-01T05:57:51;2.80;;;2.60;;
26696;SDS011;14312;52.614;13.496;2023-04-01T06:00:37;3.05;;;2.63;;
26696;SDS011;14312;52.614;13.496;2023-04-01T06:03:23;2.40;;;2.20;;
26696;SDS011;14312;52.614;13.496;2023-04-01T06:06:11;2.55;;;2.35;;
26696;SDS011;14312;52.614;13.496;2023-04-01T06:09:06;2.55;;;2.35;;
26696;SDS011;14312;52.614;13.496;2023-04-01T06:12:05;2.80;;;2.15;;
26696;SDS011;14312;52.614;13.496;2023-04-01T06:14:58;2.85;;;2.53;;
26696;SDS011;14312;52.614;13.496;2023-04-01T06:18:02;2.10;;;1.95;;
26696;SDS011;14312;52.614;13.496;2023-04-01T06:21:05;2.13;;;1.95;;
26696;SDS011;14312;52.614;13.496;2023-04-01T06:30:52;2.35;;;2.15;;
26696;SDS011;14312;52.614;13.496;2023-04-01T06:39:47;2.45;;;2.25;;
26696;SDS011;14312;52.614;13.496;2023-04-01T06:58:15;1.98;;;1.88;;
26696;SDS011;14312;52.614;13.496;2023-04-01T07:01:07;1.90;;;1.80;;
26696;SDS011;14312;52.614;13.496;2023-04-01T07:07:12;1.98;;;1.88;;
26696;SDS011;14312;52.614;13.496;2023-04-01T07:10:25;1.95;;;1.80;;
26696;SDS011;14312;52.614;13.496;2023-04-01T07:13:29;1.90;;;1.80;;
26696;SDS011;14312;52.614;13.496;2023-04-01T07:16:21;1.95;;;1.85;;
26696;SDS011;14312;52.614;13.496;2023-04-01T07:19:18;2.00;;;1.90;;
26696;SDS011;14312;52.614;13.496;2023-04-01T07:25:31;2.33;;;2.13;;
26696;SDS011;14312;52.614;13.496;2023-04-01T07:28:22;2.40;;;2.20;;
26696;SDS011;14312;52.614;13.496;2023-04-01T07:34:20;2.45;;;2.25;;
26696;SDS011;14312;52.614;13.496;2023-04-01T07:43:34;2.50;;;2.20;;
26696;SDS011;14312;52.614;13.496;2023-04-01T07:50:10;2.30;;;2.10;;
26696;SDS011;14312;52.614;13.496;2023-04-01T08:08:16;3.03;;;2.78;;
26696;SDS011;14312;52.614;13.496;2023-04-01T08:11:25;2.67;;;2.42;;
26696;SDS011;14312;52.614;13.496;2023-04-01T08:14:40;2.70;;;2.50;;
26696;SDS011;14312;52.614;13.496;2023-04-01T08:20:37;2.97;;;2.67;;
26696;SDS011;14312;52.614;13.496;2023-04-01T08:23:30;3.05;;;2.78;;
26696;SDS011;14312;52.614;13.496;2023-04-01T08:26:23;3.42;;;3.13;;
26696;SDS011;14312;52.614;13.496;2023-04-01T08:32:51;4.10;;;3.10;;
26696;SDS011;14312;52.614;13.496;2023-04-01T08:39:04;3.90;;;3.60;;
26696;SDS011;14312;52.614;13.496;2023-04-01T09:00:53;4.68;;;4.28;;
26696;SDS011;14312;52.614;13.496;2023-04-01T09:19:18;4.15;;;3.85;;
26696;SDS011;14312;52.614;13.496;2023-04-01T09:22:25;4.10;;;3.80;;
26696;SDS011;14312;52.614;13.496;2023-04-01T09:25:24;4.10;;;3.80;;
26696;SDS011;14312;52.614;13.496;2023-04-01T09:28:21;3.97;;;3.67;;
26696;SDS011;14312;52.614;13.496;2023-04-01T09:38:29;4.05;;;3.75;;
26696;SDS011;14312;52.614;13.496;2023-04-01T09:41:31;4.45;;;4.15;;
26696;SDS011;14312;52.614;13.496;2023-04-01T09:44:23;4.30;;;4.00;;
26696;SDS011;14312;52.614;13.496;2023-04-01T09:47:25;4.38;;;3.97;;
26696;SDS011;14312;52.614;13.496;2023-04-01T09:50:31;4.57;;;4.28;;
26696;SDS011;14312;52.614;13.496;2023-04-01T10:25:34;5.50;;;5.10;;
26696;SDS011;14312;52.614;13.496;2023-04-01T10:28:47;4.50;;;4.18;;
26696;SDS011;14312;52.614;13.496;2023-04-01T10:35:34;4.03;;;3.72;;
26696;SDS011;14312;52.614;13.496;2023-04-01T10:54:20;4.30;;;4.00;;
26696;SDS011;14312;52.614;13.496;2023-04-01T11:13:23;3.65;;;3.40;;
26696;SDS011;14312;52.614;13.496;2023-04-01T11:19:58;4.40;;;4.10;;
26696;SDS011;14312;52.614;13.496;2023-04-01T11:32:52;4.40;;;4.10;;
26696;SDS011;14312;52.614;13.496;2023-04-01T11:42:28;4.28;;;3.97;;
26696;SDS011;14312;52.614;13.496;2023-04-01T11:48:34;4.40;;;4.10;;
26696;SDS011;14312;52.614;13.496;2023-04-01T11:57:51;4.20;;;3.90;;
26696;SDS011;14312;52.614;13.496;2023-04-01T12:10:55;4.15;;;3.85;;
26696;SDS011;14312;52.614;13.496;2023-04-01T12:13:53;3.80;;;3.58;;
26696;SDS011;14312;52.614;13.496;2023-04-01T12:23:16;3.88;;;3.63;;
26696;SDS011;14312;52.614;13.496;2023-04-01T12:54:24;4.47;;;4.18;;
26696;SDS011;14312;52.614;13.496;2023-04-01T13:10:18;4.28;;;3.97;;
26696;SDS011;14312;52.614;13.496;2023-04-01T13:13:38;4.22;;;3.83;;
26696;SDS011;14312;52.614;13.496;2023-04-01T13:16:49;5.10;;;4.70;;
26696;SDS011;14312;52.614;13.496;2023-04-01T13:22:41;4.10;;;3.80;;
26696;SDS011;14312;52.614;13.496;2023-04-01T13:28:30;3.70;;;3.40;;
26696;SDS011;14312;52.614;13.496;2023-04-01T13:37:03;2.80;;;2.50;;
26696;SDS011;14312;52.614;13.496;2023-04-01T13:40:00;2.58;;;2.38;;
26696;SDS011;14312;52.614;13.496;2023-04-01T13:43:37;2.70;;;2.50;;
26696;SDS011;14312;52.614;13.496;2023-04-01T13:46:32;2.47;;;2.28;;
26696;SDS011;14312;52.614;13.496;2023-04-01T13:49:36;2.30;;;2.10;;
26696;SDS011;14312;52.614;13.496;2023-04-01T13:52:55;2.10;;;2.00;;
26696;SDS011;14312;52.614;13.496;2023-04-01T13:55:47;2.13;;;2.00;;
26696;SDS011;14312;52.614;13.496;2023-04-01T14:01:57;2.00;;;1.80;;
26696;SDS011;14312;52.614;13.496;2023-04-01T14:08:15;2.00;;;1.80;;
26696;SDS011;14312;52.614;13.496;2023-04-01T14:14:34;2.80;;;2.28;;
26696;SDS011;14312;52.614;13.496;2023-04-01T14:20:39;2.15;;;2.00;;
26696;SDS011;14312;52.614;13.496;2023-04-01T14:33:05;1.80;;;1.70;;
26696;SDS011;14312;52.614;13.496;2023-04-01T14:39:51;1.70;;;1.60;;
26696;SDS011;14312;52.614;13.496;2023-04-01T14:43:08;1.80;;;1.70;;
26696;SDS011;14312;52.614;13.496;2023-04-01T14:49:35;2.00;;;1.70;;
26696;SDS011;14312;52.614;13.496;2023-04-01T14:52:33;1.88;;;1.73;;
26696;SDS011;14312;52.614;13.496;2023-04-01T14:55:46;2.20;;;2.00;;
26696;SDS011;14312;52.614;13.496;2023-04-01T14:58:49;2.30;;;2.10;;
26696;SDS011;14312;52.614;13.496;2023-04-01T15:01:47;2.47;;;1.90;;
26696;SDS011;14312;52.614;13.496;2023-04-01T15:11:03;2.28;;;2.08;;
26696;SDS011;14312;52.614;13.496;2023-04-01T15:17:21;2.65;;;2.45;;
26696;SDS011;14312;52.614;13.496;2023-04-01T15:23:36;2.97;;;2.78;;
26696;SDS011;14312;52.614;13.496;2023-04-01T16:00:00;2.53;;;2.08;;
26696;SDS011;14312;52.614;13.496;2023-04-01T16:06:14;2.72;;;2.33;;
26696;SDS011;14312;52.614;13.496;2023-04-01T16:09:14;2.17;;;1.98;;
26696;SDS011;14312;52.614;13.496;2023-04-01T16:25:26;2.15;;;2.00;;
26696;SDS011;14312;52.614;13.496;2023-04-01T16:28:16;2.40;;;2.20;;
26696;SDS011;14312;52.614;13.496;2023-04-01T16:34:30;2.20;;;2.00;;
26696;SDS011;14312;52.614;13.496;2023-04-01T16:37:22;2.95;;;1.83;;
26696;SDS011;14312;52.614;13.496;2023-04-01T16:40:24;3.35;;;2.00;;
26696;SDS011;14312;52.614;13.496;2023-04-01T16:52:31;2.42;;;2.00;;
26696;SDS011;14312;52.614;13.496;2023-04-01T16:55:18;2.85;;;2.10;;
26696;SDS011;14312;52.614;13.496;2023-04-01T16:58:06;1.70;;;1.60;;
26696;SDS011;14312;52.614;13.496;2023-04-01T17:00:59;1.98;;;1.80;;
26696;SDS011;14312;52.614;13.496;2023-04-01T17:03:51;2.78;;;2.40;;
26696;SDS011;14312;52.614;13.496;2023-04-01T17:19:12;2.75;;;2.40;;
26696;SDS011;14312;52.614;13.496;2023-04-01T17:25:20;2.63;;;2.40;;
26696;SDS011;14312;52.614;13.496;2023-04-01T17:40:11;3.10;;;2.42;;
26696;SDS011;14312;52.614;13.496;2023-04-01T17:43:32;2.88;;;2.60;;
26696;SDS011;14312;52.614;13.496;2023-04-01T17:46:38;3.05;;;2.75;;
26696;SDS011;14312;52.614;13.496;2023-04-01T17:49:34;2.72;;;2.53;;
26696;SDS011;14312;52.614;13.496;2023-04-01T17:59:03;2.38;;;2.17;;
26696;SDS011;14312;52.614;13.496;2023-04-01T18:18:26;3.90;;;2.42;;
26696;SDS011;14312;52.614;13.496;2023-04-01T18:21:27;2.78;;;2.50;;
26696;SDS011;14312;52.614;13.496;2023-04-01T18:27:22;3.15;;;2.83;;
26696;SDS011;14312;52.614;13.496;2023-04-01T18:30:30;3.13;;;2.70;;
26696;SDS011;14312;52.614;13.496;2023-04-01T18:46:21;4.38;;;3.42;;
26696;SDS011;14312;52.614;13.496;2023-04-01T19:00:39;3.67;;;3.15;;
26696;SDS011;14312;52.614;13.496;2023-04-01T19:06:48;4.03;;;3.30;;
26696;SDS011;14312;52.614;13.496;2023-04-01T19:09:45;3.75;;;3.38;;
26696;SDS011;14312;52.614;13.496;2023-04-01T19:12:57;4.60;;;3.40;;
26696;SDS011;14312;52.614;13.496;2023-04-01T19:18:58;4.30;;;3.22;;
26696;SDS011;14312;52.614;13.496;2023-04-01T19:31:12;4.93;;;4.35;;
26696;SDS011;14312;52.614;13.496;2023-04-01T19:37:22;4.47;;;3.90;;
26696;SDS011;14312;52.614;13.496;2023-04-01T19:46:43;4.43;;;3.83;;
26696;SDS011;14312;52.614;13.496;2023-04-01T19:52:28;4.25;;;3.83;;
26696;SDS011;14312;52.614;13.496;2023-04-01T19:55:37;4.20;;;3.80;;
26696;SDS011;14312;52.614;13.496;2023-04-01T19:58:54;6.05;;;4.03;;
26696;SDS011;14312;52.614;13.496;2023-04-01T20:01:51;5.63;;;3.90;;
26696;SDS011;14312;52.614;13.496;2023-04-01T20:04:48;3.90;;;3.55;;
26696;SDS011;14312;52.614;13.496;2023-04-01T20:07:40;3.47;;;3.15;;
26696;SDS011;14312;52.614;13.496;2023-04-01T20:16:53;4.55;;;3.88;;
26696;SDS011;14312;52.614;13.496;2023-04-01T20:19:41;5.80;;;3.63;;
26696;SDS011;14312;52.614;13.496;2023-04-01T20:31:16;4.43;;;3.65;;
26696;SDS011;14312;52.614;13.496;2023-04-01T20:40:41;5.10;;;3.05;;
26696;SDS011;14312;52.614;13.496;2023-04-01T20:47:06;4.13;;;3.72;;
26696;SDS011;14312;52.614;13.496;2023-04-01T20:50:19;4.30;;;3.85;;
26696;SDS011;14312;52.614;13.496;2023-04-01T20:59:22;3.90;;;3.60;;
26696;SDS011;14312;52.614;13.496;2023-04-01T21:02:24;4.80;;;3.92;;
26696;SDS011;14312;52.614;13.496;2023-04-01T21:20:47;7.05;;;3.40;;
26696;SDS011;14312;52.614;13.496;2023-04-01T21:38:32;3.38;;;3.08;;
26696;SDS011;14312;52.614;13.496;2023-04-01T21:50:46;3.88;;;3.05;;
26696;SDS011;14312;52.614;13.496;2023-04-01T22:00:19;2.95;;;2.65;;
26696;SDS011;14312;52.614;13.496;2023-04-01T22:30:23;2.90;;;2.25;;
26696;SDS011;14312;52.614;13.496;2023-04-01T22:36:28;2.95;;;2.60;;
26696;SDS011;14312;52.614;13.496;2023-04-01T22:48:39;3.55;;;2.90;;
26696;SDS011;14312;52.614;13.496;2023-04-01T22:51:38;2.97;;;2.67;;
26696;SDS011;14312;52.614;13.496;2023-04-01T22:55:05;3.50;;;2.95;;
26696;SDS011;14312;52.614;13.496;2023-04-01T22:57:53;2.83;;;2.50;;
26696;SDS011;14312;52.614;13.496;2023-04-01T23:00:47;2.80;;;2.60;;
26696;SDS011;14312;52.614;13.496;2023-04-01T23:03:43;2.78;;;2.55;;
26696;SDS011;14312;52.614;13.496;2023-04-01T23:06:37;2.70;;;2.40;;
26696;SDS011;14312;52.614;13.496;2023-04-01T23:09:30;2.60;;;2.38;;
26696;SDS011;14312;52.614;13.496;2023-04-01T23:12:19;2.58;;;2.38;;
26696;SDS011;14312;52.614;13.496;2023-04-01T23:15:08;2.53;;;2.33;;
26696;SDS011;14312;52.614;13.496;2023-04-01T23:18:03;2.50;;;2.30;;
26696;SDS011;14312;52.614;13.496;2023-04-01T23:21:15;2.47;;;2.28;;
26696;SDS011;14312;52.614;13.496;2023-04-01T23:24:28;2.72;;;2.53;;
26696;SDS011;14312;52.614;13.496;2023-04-01T23:27:23;2.75;;;2.20;;
26696;SDS011;14312;52.614;13.496;2023-04-01T23:30:49;3.55;;;2.60;;
26696;SDS011;14312;52.614;13.496;2023-04-01T23:33:28;2.80;;;2.60;;
26696;SDS011;14312;52.614;13.496;2023-04-01T23:36:16;3.60;;;2.72;;
26696;SDS011;14312;52.614;13.496;2023-04-01T23:39:03;2.88;;;2.63;;
26696;SDS011;14312;52.614;13.496;2023-04-01T23:45:14;2.58;;;2.38;;
26696;SDS011;14312;52.614;13.496;2023-04-01T23:48:05;2.80;;;2.60;;
26696;SDS011;14312;52.614;13.496;2023-04-01T23:50:51;2.97;;;2.58;;
26696;SDS011;14312;52.614;13.496;2023-04-01T23:53:38;3.03;;;2.40;;
26696;SDS011;14312;52.614;13.496;2023-04-01T23:56:41;3.67;;;2.30;;
26696;SDS011;14312;52.614;13.496;2023-04-01T23:59:32;2.30;;;2.10;;
